ELY362 LOWW-LLBG
Flight info
| Callsign | ELY362 |
|---|---|
| Flight time | 2h 56m |
| Altitude | 35000 |
| Route | ARSIN DCT NALOX DCT BABIT DCT OKLOP DCT NISVA N131 USALI DCT RODIP DCT BELGI UN131 OVZOK/N0441F370 UN131 KULAR UT39 TOMBI DCT IDAKU L35 PIKOG L609 ZUKKO |
| Aircraft | B738/M-SDE2E3FGHIJ1LORVWXY/LB1 |
Departure
| Time | 2026-04-26 10:40 |
|---|---|
| Airport | Vienna International Airport (LOWW) |
Arrival
| Time | 2026-04-26 13:37 |
|---|---|
| Airport | Ben Gurion International Airport (LLBG) |
| Time | Latitude | Longitude | Altitude | Speed | Heading |
|---|---|---|---|---|---|
| 2026-04-26 10:23 | 48.11903 | 16.56019 | 609 ft | 0 kts | 160° |
| 2026-04-26 10:31 | 48.11906 | 16.56017 | 622 ft | 3 kts | 160° |
| 2026-04-26 10:32 | 48.11926 | 16.56006 | 622 ft | 4 kts | 163° |
| 2026-04-26 10:32 | 48.11948 | 16.55991 | 625 ft | 4 kts | 136° |
| 2026-04-26 10:32 | 48.11958 | 16.55964 | 619 ft | 4 kts | 71° |
| 2026-04-26 10:32 | 48.11942 | 16.55937 | 622 ft | 4 kts | 31° |
| 2026-04-26 10:33 | 48.11919 | 16.55918 | 610 ft | 4 kts | 25° |
| 2026-04-26 10:33 | 48.11895 | 16.55901 | 609 ft | 4 kts | 26° |
| 2026-04-26 10:33 | 48.11870 | 16.55884 | 622 ft | 4 kts | 26° |
| 2026-04-26 10:33 | 48.11846 | 16.55866 | 618 ft | 4 kts | 26° |
| 2026-04-26 10:34 | 48.11821 | 16.55848 | 622 ft | 4 kts | 26° |
| 2026-04-26 10:34 | 48.11800 | 16.55830 | 613 ft | 4 kts | 45° |
| 2026-04-26 10:34 | 48.11788 | 16.55798 | 620 ft | 4 kts | 89° |
| 2026-04-26 10:34 | 48.11793 | 16.55764 | 621 ft | 2 kts | 116° |
| 2026-04-26 10:35 | 48.11793 | 16.55763 | 621 ft | 1 kts | 116° |
| 2026-04-26 10:36 | 48.11765 | 16.55791 | 622 ft | 10 kts | 169° |
| 2026-04-26 10:36 | 48.11698 | 16.55796 | 614 ft | 10 kts | 149° |
| 2026-04-26 10:36 | 48.11658 | 16.55898 | 620 ft | 16 kts | 116° |
| 2026-04-26 10:36 | 48.11597 | 16.56084 | 619 ft | 24 kts | 116° |
| 2026-04-26 10:37 | 48.11513 | 16.56341 | 614 ft | 29 kts | 116° |
| 2026-04-26 10:37 | 48.11429 | 16.56601 | 620 ft | 27 kts | 116° |
| 2026-04-26 10:37 | 48.11347 | 16.56849 | 612 ft | 26 kts | 116° |
| 2026-04-26 10:37 | 48.11272 | 16.57083 | 609 ft | 24 kts | 116° |
| 2026-04-26 10:38 | 48.11200 | 16.57301 | 609 ft | 23 kts | 116° |
| 2026-04-26 10:38 | 48.11134 | 16.57506 | 619 ft | 19 kts | 116° |
| 2026-04-26 10:38 | 48.11103 | 16.57601 | 613 ft | 11 kts | 117° |
| 2026-04-26 10:38 | 48.11019 | 16.57629 | 613 ft | 11 kts | 204° |
| 2026-04-26 10:39 | 48.10975 | 16.57598 | 616 ft | 10 kts | 206° |
| 2026-04-26 10:39 | 48.10922 | 16.57555 | 619 ft | 4 kts | 226° |
| 2026-04-26 10:39 | 48.10918 | 16.57525 | 615 ft | 5 kts | 278° |
| 2026-04-26 10:39 | 48.11039 | 16.57151 | 610 ft | 72 kts | 296° |
| 2026-04-26 10:40 | 48.11233 | 16.56554 | 618 ft | 115 kts | 296° |
| 2026-04-26 10:40 | 48.11666 | 16.55233 | 632 ft | 166 kts | 296° |
| 2026-04-26 10:40 | 48.12153 | 16.53653 | 1350 ft | 164 kts | 293° |
| 2026-04-26 10:40 | 48.12463 | 16.52042 | 2318 ft | 163 kts | 270° |
| 2026-04-26 10:41 | 48.12045 | 16.50433 | 3054 ft | 175 kts | 235° |
| 2026-04-26 10:41 | 48.11015 | 16.49412 | 3800 ft | 182 kts | 208° |
| 2026-04-26 10:41 | 48.09801 | 16.48613 | 4233 ft | 206 kts | 210° |
| 2026-04-26 10:41 | 48.08407 | 16.47690 | 4424 ft | 230 kts | 208° |
| 2026-04-26 10:42 | 48.06751 | 16.47199 | 4754 ft | 257 kts | 178° |
| 2026-04-26 10:42 | 48.04911 | 16.47590 | 5113 ft | 280 kts | 174° |
| 2026-04-26 10:42 | 48.02961 | 16.48023 | 5833 ft | 285 kts | 175° |
| 2026-04-26 10:42 | 48.00972 | 16.48427 | 6638 ft | 289 kts | 176° |
| 2026-04-26 10:43 | 47.98984 | 16.48942 | 7352 ft | 297 kts | 166° |
| 2026-04-26 10:43 | 47.97023 | 16.50018 | 8129 ft | 301 kts | 159° |
| 2026-04-26 10:43 | 47.95107 | 16.51272 | 8870 ft | 305 kts | 158° |
| 2026-04-26 10:43 | 47.93148 | 16.52587 | 9612 ft | 310 kts | 157° |
| 2026-04-26 10:44 | 47.91146 | 16.53914 | 10299 ft | 316 kts | 158° |
| 2026-04-26 10:44 | 47.89074 | 16.55261 | 10524 ft | 340 kts | 158° |
| 2026-04-26 10:44 | 47.86842 | 16.56686 | 10719 ft | 361 kts | 158° |
| 2026-04-26 10:44 | 47.84483 | 16.58176 | 11238 ft | 369 kts | 158° |
| 2026-04-26 10:45 | 47.82115 | 16.59661 | 11932 ft | 372 kts | 158° |
| 2026-04-26 10:45 | 47.79718 | 16.61157 | 12674 ft | 374 kts | 159° |
| 2026-04-26 10:45 | 47.77297 | 16.62663 | 13377 ft | 377 kts | 159° |
| 2026-04-26 10:45 | 47.74916 | 16.64317 | 14018 ft | 383 kts | 150° |
| 2026-04-26 10:46 | 47.72776 | 16.66664 | 14559 ft | 388 kts | 139° |
| 2026-04-26 10:46 | 47.70743 | 16.69339 | 15169 ft | 392 kts | 138° |
| 2026-04-26 10:46 | 47.68700 | 16.72078 | 15755 ft | 396 kts | 138° |
| 2026-04-26 10:46 | 47.66647 | 16.74835 | 16328 ft | 399 kts | 138° |
| 2026-04-26 10:47 | 47.64565 | 16.77616 | 16891 ft | 403 kts | 139° |
| 2026-04-26 10:47 | 47.62484 | 16.80378 | 17456 ft | 407 kts | 139° |
| 2026-04-26 10:47 | 47.60352 | 16.83191 | 18024 ft | 411 kts | 139° |
| 2026-04-26 10:47 | 47.58189 | 16.86032 | 18556 ft | 416 kts | 139° |
| 2026-04-26 10:48 | 47.56034 | 16.88853 | 19041 ft | 419 kts | 139° |
| 2026-04-26 10:48 | 47.53836 | 16.91725 | 19566 ft | 421 kts | 139° |
| 2026-04-26 10:48 | 47.51627 | 16.94605 | 20088 ft | 423 kts | 140° |
| 2026-04-26 10:48 | 47.49429 | 16.97467 | 20586 ft | 426 kts | 140° |
| 2026-04-26 10:49 | 47.47193 | 17.00376 | 21085 ft | 428 kts | 140° |
| 2026-04-26 10:49 | 47.44938 | 17.03305 | 21572 ft | 431 kts | 140° |
| 2026-04-26 10:49 | 47.42674 | 17.06244 | 22061 ft | 433 kts | 140° |
| 2026-04-26 10:49 | 47.40424 | 17.09160 | 22534 ft | 435 kts | 140° |
| 2026-04-26 10:50 | 47.38131 | 17.12129 | 22996 ft | 438 kts | 140° |
| 2026-04-26 10:50 | 47.36601 | 17.14108 | 23302 ft | 440 kts | 140° |
| 2026-04-26 10:50 | 47.33545 | 17.18056 | 23883 ft | 443 kts | 140° |
| 2026-04-26 10:50 | 47.31199 | 17.21083 | 24259 ft | 445 kts | 140° |
| 2026-04-26 10:51 | 47.28881 | 17.24069 | 24615 ft | 447 kts | 140° |
| 2026-04-26 10:51 | 47.24158 | 17.30144 | 25322 ft | 452 kts | 140° |
| 2026-04-26 10:51 | 47.21794 | 17.33179 | 25668 ft | 454 kts | 140° |
| 2026-04-26 10:52 | 47.19397 | 17.36252 | 26006 ft | 456 kts | 140° |
| 2026-04-26 10:52 | 47.16982 | 17.39345 | 26340 ft | 459 kts | 140° |
| 2026-04-26 10:52 | 47.14579 | 17.42419 | 26666 ft | 461 kts | 140° |
| 2026-04-26 10:52 | 47.12168 | 17.45498 | 26984 ft | 463 kts | 140° |
| 2026-04-26 10:53 | 47.09713 | 17.48630 | 27301 ft | 465 kts | 140° |
| 2026-04-26 10:53 | 47.07286 | 17.51724 | 27604 ft | 467 kts | 140° |
| 2026-04-26 10:53 | 47.04811 | 17.54874 | 27911 ft | 469 kts | 141° |
| 2026-04-26 10:54 | 46.99858 | 17.61165 | 28471 ft | 474 kts | 141° |
| 2026-04-26 10:54 | 46.97367 | 17.64322 | 28759 ft | 476 kts | 141° |
| 2026-04-26 10:54 | 46.94844 | 17.67517 | 29058 ft | 477 kts | 141° |
| 2026-04-26 10:54 | 46.92347 | 17.70674 | 29340 ft | 479 kts | 141° |
| 2026-04-26 10:55 | 46.89801 | 17.73889 | 29615 ft | 481 kts | 141° |
| 2026-04-26 10:55 | 46.87282 | 17.77066 | 29891 ft | 482 kts | 141° |
| 2026-04-26 10:55 | 46.84754 | 17.80252 | 30243 ft | 481 kts | 141° |
| 2026-04-26 10:55 | 46.82203 | 17.83462 | 30605 ft | 479 kts | 141° |
| 2026-04-26 10:56 | 46.79671 | 17.86644 | 30947 ft | 478 kts | 141° |
| 2026-04-26 10:56 | 46.77163 | 17.89791 | 31225 ft | 478 kts | 141° |
| 2026-04-26 10:56 | 46.74650 | 17.92939 | 31486 ft | 478 kts | 141° |
| 2026-04-26 10:56 | 46.72115 | 17.96112 | 31780 ft | 477 kts | 141° |
| 2026-04-26 10:57 | 46.69581 | 17.99279 | 32084 ft | 477 kts | 141° |
| 2026-04-26 10:57 | 46.67093 | 18.02385 | 32342 ft | 477 kts | 141° |
| 2026-04-26 10:57 | 46.64552 | 18.05553 | 32555 ft | 478 kts | 141° |
| 2026-04-26 10:57 | 46.62036 | 18.08685 | 32753 ft | 479 kts | 141° |
| 2026-04-26 10:58 | 46.59487 | 18.11856 | 32979 ft | 480 kts | 141° |
| 2026-04-26 10:58 | 46.56946 | 18.15012 | 33260 ft | 479 kts | 141° |
| 2026-04-26 10:58 | 46.54439 | 18.18123 | 33545 ft | 478 kts | 141° |
| 2026-04-26 10:58 | 46.51897 | 18.21271 | 33785 ft | 478 kts | 141° |
| 2026-04-26 10:59 | 46.49377 | 18.24389 | 34002 ft | 478 kts | 141° |
| 2026-04-26 10:59 | 46.46829 | 18.27538 | 34229 ft | 478 kts | 141° |
| 2026-04-26 10:59 | 46.44320 | 18.30635 | 34444 ft | 477 kts | 141° |
| 2026-04-26 10:59 | 46.41794 | 18.33749 | 34644 ft | 477 kts | 141° |
| 2026-04-26 11:00 | 46.39241 | 18.36891 | 34811 ft | 477 kts | 142° |
| 2026-04-26 11:00 | 46.36730 | 18.39978 | 34993 ft | 478 kts | 142° |
| 2026-04-26 11:00 | 46.34178 | 18.43111 | 35203 ft | 477 kts | 142° |
| 2026-04-26 11:00 | 46.31668 | 18.46190 | 35407 ft | 476 kts | 142° |
| 2026-04-26 11:01 | 46.29146 | 18.49278 | 35582 ft | 476 kts | 142° |
| 2026-04-26 11:01 | 46.26598 | 18.52395 | 35732 ft | 477 kts | 142° |
| 2026-04-26 11:01 | 46.24080 | 18.55472 | 35906 ft | 477 kts | 142° |
| 2026-04-26 11:01 | 46.21530 | 18.58584 | 36110 ft | 475 kts | 142° |
| 2026-04-26 11:02 | 46.19021 | 18.61642 | 36318 ft | 474 kts | 142° |
| 2026-04-26 11:02 | 46.16487 | 18.64727 | 36493 ft | 473 kts | 142° |
| 2026-04-26 11:02 | 46.13992 | 18.67759 | 36629 ft | 473 kts | 142° |
| 2026-04-26 11:02 | 46.11460 | 18.70834 | 36760 ft | 474 kts | 142° |
| 2026-04-26 11:03 | 46.08926 | 18.73907 | 36915 ft | 473 kts | 141° |
| 2026-04-26 11:03 | 46.06401 | 18.76965 | 37078 ft | 473 kts | 142° |
| 2026-04-26 11:03 | 46.01377 | 18.83040 | 37106 ft | 476 kts | 141° |
| 2026-04-26 11:04 | 45.96315 | 18.89149 | 37120 ft | 473 kts | 141° |
| 2026-04-26 11:04 | 45.91337 | 18.95333 | 37113 ft | 472 kts | 138° |
| 2026-04-26 11:05 | 45.86636 | 19.01900 | 37111 ft | 470 kts | 136° |
| 2026-04-26 11:05 | 45.82029 | 19.08483 | 37112 ft | 468 kts | 136° |
| 2026-04-26 11:06 | 45.78169 | 19.13944 | 37112 ft | 467 kts | 136° |
| 2026-04-26 11:06 | 45.72775 | 19.21491 | 37111 ft | 467 kts | 136° |
| 2026-04-26 11:07 | 45.68101 | 19.27989 | 37112 ft | 467 kts | 136° |
| 2026-04-26 11:07 | 45.63450 | 19.34438 | 37108 ft | 468 kts | 136° |
| 2026-04-26 11:08 | 45.58751 | 19.40941 | 37109 ft | 469 kts | 136° |
| 2026-04-26 11:08 | 45.54048 | 19.47434 | 37106 ft | 471 kts | 136° |
| 2026-04-26 11:09 | 45.49337 | 19.53923 | 37104 ft | 472 kts | 136° |
| 2026-04-26 11:09 | 45.44619 | 19.60405 | 37104 ft | 473 kts | 136° |
| 2026-04-26 11:10 | 45.39843 | 19.66951 | 37103 ft | 474 kts | 136° |
| 2026-04-26 11:10 | 45.35110 | 19.73422 | 37101 ft | 474 kts | 136° |
| 2026-04-26 11:11 | 45.30355 | 19.79907 | 37103 ft | 474 kts | 136° |
| 2026-04-26 11:11 | 45.25592 | 19.86387 | 37096 ft | 473 kts | 136° |
| 2026-04-26 11:12 | 45.20848 | 19.92825 | 37094 ft | 472 kts | 136° |
| 2026-04-26 11:12 | 45.16075 | 19.99287 | 37102 ft | 471 kts | 136° |
| 2026-04-26 11:13 | 45.11333 | 20.05691 | 37095 ft | 470 kts | 136° |
| 2026-04-26 11:13 | 45.06614 | 20.12051 | 37101 ft | 469 kts | 136° |
| 2026-04-26 11:14 | 45.01893 | 20.18396 | 37101 ft | 468 kts | 136° |
| 2026-04-26 11:14 | 44.97965 | 20.23664 | 37103 ft | 467 kts | 136° |
| 2026-04-26 11:15 | 44.92482 | 20.31000 | 37104 ft | 466 kts | 136° |
| 2026-04-26 11:15 | 44.87756 | 20.37308 | 37100 ft | 466 kts | 136° |
| 2026-04-26 11:16 | 44.83064 | 20.43554 | 37111 ft | 465 kts | 136° |
| 2026-04-26 11:16 | 44.78352 | 20.49813 | 37103 ft | 466 kts | 136° |
| 2026-04-26 11:17 | 44.73630 | 20.56071 | 37098 ft | 466 kts | 136° |
| 2026-04-26 11:17 | 44.69703 | 20.61263 | 37091 ft | 467 kts | 136° |
| 2026-04-26 11:18 | 44.64938 | 20.67551 | 37088 ft | 467 kts | 136° |
| 2026-04-26 11:18 | 44.60222 | 20.73758 | 37081 ft | 468 kts | 136° |
| 2026-04-26 11:19 | 44.55452 | 20.80022 | 37073 ft | 468 kts | 136° |
| 2026-04-26 11:19 | 44.50706 | 20.86241 | 37070 ft | 468 kts | 136° |
| 2026-04-26 11:20 | 44.45942 | 20.92467 | 37073 ft | 468 kts | 136° |
| 2026-04-26 11:20 | 44.41196 | 20.98656 | 37070 ft | 468 kts | 136° |
| 2026-04-26 11:21 | 44.36432 | 21.04854 | 37069 ft | 468 kts | 136° |
| 2026-04-26 11:21 | 44.31640 | 21.11074 | 37072 ft | 468 kts | 136° |
| 2026-04-26 11:22 | 44.26902 | 21.17210 | 37068 ft | 467 kts | 136° |
| 2026-04-26 11:22 | 44.22133 | 21.23371 | 37061 ft | 467 kts | 136° |
| 2026-04-26 11:23 | 44.17333 | 21.29558 | 37067 ft | 467 kts | 136° |
| 2026-04-26 11:23 | 44.12566 | 21.35688 | 37058 ft | 467 kts | 136° |
| 2026-04-26 11:24 | 44.07808 | 21.41793 | 37064 ft | 467 kts | 136° |
| 2026-04-26 11:24 | 44.03005 | 21.47941 | 37060 ft | 467 kts | 136° |
| 2026-04-26 11:25 | 43.98246 | 21.54020 | 37061 ft | 467 kts | 136° |
| 2026-04-26 11:25 | 43.93444 | 21.60139 | 37053 ft | 467 kts | 136° |
| 2026-04-26 11:26 | 43.88669 | 21.66210 | 37056 ft | 466 kts | 136° |
| 2026-04-26 11:26 | 43.83862 | 21.72306 | 37052 ft | 466 kts | 136° |
| 2026-04-26 11:27 | 43.79085 | 21.78352 | 37058 ft | 466 kts | 136° |
| 2026-04-26 11:27 | 43.74291 | 21.84405 | 37057 ft | 466 kts | 136° |
| 2026-04-26 11:28 | 43.69515 | 21.90423 | 37048 ft | 467 kts | 136° |
| 2026-04-26 11:28 | 43.64695 | 21.96482 | 37056 ft | 467 kts | 136° |
| 2026-04-26 11:29 | 43.59885 | 22.02514 | 37067 ft | 467 kts | 137° |
| 2026-04-26 11:29 | 43.55085 | 22.08521 | 37062 ft | 467 kts | 137° |
| 2026-04-26 11:30 | 43.51052 | 22.13557 | 37061 ft | 467 kts | 137° |
| 2026-04-26 11:30 | 43.45459 | 22.20525 | 37063 ft | 467 kts | 137° |
| 2026-04-26 11:31 | 43.40612 | 22.26551 | 37055 ft | 468 kts | 139° |
| 2026-04-26 11:31 | 43.35776 | 22.32548 | 37066 ft | 468 kts | 139° |
| 2026-04-26 11:32 | 43.30923 | 22.38552 | 37055 ft | 470 kts | 139° |
| 2026-04-26 11:32 | 43.26064 | 22.44551 | 37054 ft | 470 kts | 139° |
| 2026-04-26 11:33 | 43.21184 | 22.50562 | 37062 ft | 472 kts | 139° |
| 2026-04-26 11:33 | 43.16285 | 22.56585 | 37054 ft | 473 kts | 139° |
| 2026-04-26 11:34 | 43.11382 | 22.62598 | 37052 ft | 474 kts | 139° |
| 2026-04-26 11:34 | 43.06485 | 22.68591 | 37053 ft | 475 kts | 139° |
| 2026-04-26 11:35 | 43.01529 | 22.74644 | 37053 ft | 476 kts | 140° |
| 2026-04-26 11:35 | 42.97428 | 22.79641 | 37048 ft | 476 kts | 140° |
| 2026-04-26 11:36 | 42.91727 | 22.86838 | 37043 ft | 477 kts | 138° |
| 2026-04-26 11:36 | 42.87163 | 22.92728 | 37042 ft | 477 kts | 138° |
| 2026-04-26 11:37 | 42.82339 | 22.98913 | 37036 ft | 476 kts | 138° |
| 2026-04-26 11:37 | 42.77462 | 23.05053 | 37030 ft | 476 kts | 139° |
| 2026-04-26 11:38 | 42.72599 | 23.11134 | 37028 ft | 475 kts | 139° |
| 2026-04-26 11:38 | 42.67721 | 23.17232 | 37029 ft | 474 kts | 139° |
| 2026-04-26 11:39 | 42.62888 | 23.23272 | 37020 ft | 474 kts | 139° |
| 2026-04-26 11:39 | 42.58000 | 23.29368 | 37017 ft | 474 kts | 139° |
| 2026-04-26 11:40 | 42.53183 | 23.35365 | 37008 ft | 472 kts | 139° |
| 2026-04-26 11:40 | 42.48337 | 23.41382 | 37035 ft | 472 kts | 139° |
| 2026-04-26 11:42 | 42.28841 | 23.65458 | 37028 ft | 476 kts | 140° |
| 2026-04-26 11:43 | 42.23931 | 23.71487 | 37028 ft | 477 kts | 140° |
| 2026-04-26 11:43 | 42.19017 | 23.77510 | 37015 ft | 478 kts | 140° |
| 2026-04-26 11:44 | 42.14083 | 23.83544 | 37010 ft | 479 kts | 140° |
| 2026-04-26 11:44 | 42.09140 | 23.89575 | 37007 ft | 479 kts | 140° |
| 2026-04-26 11:45 | 42.04219 | 23.95566 | 37000 ft | 478 kts | 140° |
| 2026-04-26 11:45 | 41.99255 | 24.01596 | 37010 ft | 478 kts | 140° |
| 2026-04-26 11:46 | 41.94323 | 24.07575 | 37001 ft | 477 kts | 140° |
| 2026-04-26 11:46 | 41.89392 | 24.13538 | 36991 ft | 477 kts | 140° |
| 2026-04-26 11:47 | 41.84465 | 24.19485 | 36996 ft | 477 kts | 140° |
| 2026-04-26 11:47 | 41.79541 | 24.25415 | 36996 ft | 477 kts | 140° |
| 2026-04-26 11:48 | 41.74606 | 24.31345 | 36982 ft | 477 kts | 140° |
| 2026-04-26 11:48 | 41.69657 | 24.37280 | 36970 ft | 476 kts | 140° |
| 2026-04-26 11:49 | 41.64727 | 24.43180 | 36973 ft | 475 kts | 140° |
| 2026-04-26 11:49 | 41.59804 | 24.49057 | 36992 ft | 474 kts | 140° |
| 2026-04-26 11:50 | 41.54906 | 24.54897 | 36994 ft | 474 kts | 140° |
| 2026-04-26 11:50 | 41.50099 | 24.61019 | 36990 ft | 475 kts | 137° |
| 2026-04-26 11:51 | 41.45408 | 24.67213 | 36984 ft | 476 kts | 137° |
| 2026-04-26 11:51 | 41.40696 | 24.73383 | 36979 ft | 476 kts | 137° |
| 2026-04-26 11:52 | 41.36744 | 24.78503 | 36977 ft | 476 kts | 137° |
| 2026-04-26 11:52 | 41.31212 | 24.85630 | 36984 ft | 475 kts | 137° |
| 2026-04-26 11:53 | 41.26459 | 24.91737 | 36980 ft | 474 kts | 137° |
| 2026-04-26 11:54 | 41.19367 | 25.00830 | 36992 ft | 473 kts | 137° |
| 2026-04-26 11:54 | 41.14629 | 25.06889 | 36991 ft | 473 kts | 137° |
| 2026-04-26 11:55 | 41.09912 | 25.12909 | 36995 ft | 472 kts | 137° |
| 2026-04-26 11:55 | 41.05184 | 25.18930 | 37001 ft | 471 kts | 137° |
| 2026-04-26 11:56 | 41.00455 | 25.24940 | 37005 ft | 471 kts | 137° |
| 2026-04-26 11:56 | 40.95752 | 25.30905 | 37002 ft | 470 kts | 137° |
| 2026-04-26 11:57 | 40.91030 | 25.36881 | 36998 ft | 470 kts | 137° |
| 2026-04-26 11:57 | 40.86305 | 25.42848 | 37009 ft | 469 kts | 137° |
| 2026-04-26 11:58 | 40.81581 | 25.48803 | 37005 ft | 469 kts | 137° |
| 2026-04-26 11:58 | 40.77642 | 25.53758 | 37008 ft | 469 kts | 137° |
| 2026-04-26 11:59 | 40.72147 | 25.60656 | 37007 ft | 469 kts | 137° |
| 2026-04-26 11:59 | 40.68174 | 25.65633 | 37006 ft | 469 kts | 137° |
| 2026-04-26 12:00 | 40.63470 | 25.71516 | 37006 ft | 469 kts | 137° |
| 2026-04-26 12:00 | 40.58730 | 25.77432 | 37009 ft | 469 kts | 137° |
| 2026-04-26 12:01 | 40.53977 | 25.83354 | 37012 ft | 469 kts | 137° |
| 2026-04-26 12:01 | 40.49270 | 25.89295 | 37013 ft | 470 kts | 133° |
| 2026-04-26 12:02 | 40.44930 | 25.95686 | 37025 ft | 469 kts | 130° |
| 2026-04-26 12:02 | 40.40669 | 26.02187 | 37016 ft | 470 kts | 130° |
| 2026-04-26 12:03 | 40.36367 | 26.08667 | 37013 ft | 470 kts | 130° |
| 2026-04-26 12:03 | 40.32055 | 26.15091 | 37009 ft | 469 kts | 131° |
| 2026-04-26 12:04 | 40.27745 | 26.21487 | 37012 ft | 469 kts | 130° |
| 2026-04-26 12:04 | 40.23417 | 26.27898 | 37003 ft | 469 kts | 130° |
| 2026-04-26 12:05 | 40.19106 | 26.34277 | 36997 ft | 469 kts | 130° |
| 2026-04-26 12:05 | 40.14795 | 26.40642 | 36988 ft | 468 kts | 130° |
| 2026-04-26 12:06 | 40.10304 | 26.46876 | 36998 ft | 468 kts | 134° |
| 2026-04-26 12:06 | 40.05652 | 26.52759 | 36992 ft | 468 kts | 135° |
| 2026-04-26 12:07 | 40.00962 | 26.58668 | 36998 ft | 468 kts | 135° |
| 2026-04-26 12:07 | 39.96311 | 26.64592 | 37004 ft | 467 kts | 134° |
| 2026-04-26 12:08 | 39.91690 | 26.70493 | 37005 ft | 466 kts | 134° |
| 2026-04-26 12:08 | 39.87046 | 26.76412 | 37007 ft | 465 kts | 134° |
| 2026-04-26 12:09 | 39.82430 | 26.82282 | 37004 ft | 464 kts | 134° |
| 2026-04-26 12:09 | 39.77814 | 26.88140 | 37001 ft | 464 kts | 134° |
| 2026-04-26 12:10 | 39.73166 | 26.93940 | 36994 ft | 463 kts | 135° |
| 2026-04-26 12:10 | 39.68475 | 26.99678 | 37000 ft | 462 kts | 135° |
| 2026-04-26 12:11 | 39.63777 | 27.05427 | 36997 ft | 462 kts | 135° |
| 2026-04-26 12:11 | 39.59127 | 27.11122 | 36996 ft | 461 kts | 135° |
| 2026-04-26 12:12 | 39.54453 | 27.16842 | 36999 ft | 461 kts | 135° |
| 2026-04-26 12:12 | 39.49787 | 27.22570 | 36996 ft | 460 kts | 132° |
| 2026-04-26 12:13 | 39.45680 | 27.28851 | 37001 ft | 459 kts | 126° |
| 2026-04-26 12:13 | 39.41702 | 27.35291 | 37007 ft | 459 kts | 127° |
| 2026-04-26 12:14 | 39.37649 | 27.41676 | 36997 ft | 460 kts | 127° |
| 2026-04-26 12:14 | 39.33571 | 27.48029 | 36991 ft | 460 kts | 127° |
| 2026-04-26 12:15 | 39.29476 | 27.54392 | 36986 ft | 460 kts | 127° |
| 2026-04-26 12:15 | 39.25367 | 27.60771 | 36983 ft | 461 kts | 127° |
| 2026-04-26 12:16 | 39.21270 | 27.67123 | 36982 ft | 461 kts | 127° |
| 2026-04-26 12:16 | 39.17151 | 27.73497 | 36988 ft | 461 kts | 127° |
| 2026-04-26 12:17 | 39.13056 | 27.79822 | 36978 ft | 460 kts | 127° |
| 2026-04-26 12:17 | 39.08948 | 27.86153 | 36987 ft | 460 kts | 128° |
| 2026-04-26 12:18 | 39.04868 | 27.92423 | 36976 ft | 460 kts | 128° |
| 2026-04-26 12:18 | 39.00724 | 27.98775 | 36985 ft | 459 kts | 128° |
| 2026-04-26 12:19 | 38.96640 | 28.05026 | 36976 ft | 459 kts | 128° |
| 2026-04-26 12:19 | 38.92539 | 28.11293 | 36980 ft | 458 kts | 128° |
| 2026-04-26 12:20 | 38.88458 | 28.17518 | 36986 ft | 457 kts | 128° |
| 2026-04-26 12:20 | 38.84356 | 28.23762 | 36987 ft | 457 kts | 128° |
| 2026-04-26 12:21 | 38.80254 | 28.29994 | 36978 ft | 457 kts | 128° |
| 2026-04-26 12:21 | 38.76148 | 28.36219 | 36985 ft | 456 kts | 128° |
| 2026-04-26 12:22 | 38.72075 | 28.42384 | 36979 ft | 456 kts | 128° |
| 2026-04-26 12:22 | 38.68899 | 28.47183 | 36982 ft | 456 kts | 128° |
| 2026-04-26 12:23 | 38.64794 | 28.53375 | 36986 ft | 456 kts | 128° |
| 2026-04-26 12:23 | 38.60717 | 28.59515 | 36979 ft | 455 kts | 128° |
| 2026-04-26 12:24 | 38.56238 | 28.65247 | 36971 ft | 458 kts | 142° |
| 2026-04-26 12:24 | 38.51019 | 28.69906 | 36978 ft | 458 kts | 144° |
| 2026-04-26 12:25 | 38.43127 | 28.76816 | 36980 ft | 458 kts | 143° |
| 2026-04-26 12:25 | 38.37907 | 28.81455 | 36980 ft | 458 kts | 143° |
| 2026-04-26 12:26 | 38.32696 | 28.86104 | 36984 ft | 458 kts | 143° |
| 2026-04-26 12:26 | 38.27472 | 28.90756 | 36981 ft | 457 kts | 143° |
| 2026-04-26 12:27 | 38.22254 | 28.95394 | 36982 ft | 457 kts | 143° |
| 2026-04-26 12:27 | 38.17041 | 29.00017 | 36976 ft | 457 kts | 143° |
| 2026-04-26 12:28 | 38.11837 | 29.04624 | 36978 ft | 456 kts | 143° |
| 2026-04-26 12:28 | 38.06606 | 29.09247 | 36980 ft | 455 kts | 143° |
| 2026-04-26 12:29 | 38.01424 | 29.13820 | 36980 ft | 454 kts | 144° |
| 2026-04-26 12:30 | 37.93635 | 29.20677 | 36985 ft | 453 kts | 144° |
| 2026-04-26 12:30 | 37.88463 | 29.25222 | 36995 ft | 453 kts | 144° |
| 2026-04-26 12:31 | 37.80710 | 29.32014 | 36992 ft | 452 kts | 144° |
| 2026-04-26 12:31 | 37.75533 | 29.36534 | 36996 ft | 452 kts | 144° |
| 2026-04-26 12:32 | 37.70367 | 29.41041 | 36995 ft | 452 kts | 144° |
| 2026-04-26 12:33 | 37.62591 | 29.47810 | 36999 ft | 451 kts | 144° |
| 2026-04-26 12:33 | 37.57412 | 29.52309 | 36999 ft | 452 kts | 144° |
| 2026-04-26 12:34 | 37.52241 | 29.56794 | 37001 ft | 452 kts | 144° |
| 2026-04-26 12:34 | 37.47071 | 29.61271 | 36995 ft | 453 kts | 144° |
| 2026-04-26 12:35 | 37.41889 | 29.65750 | 36997 ft | 453 kts | 145° |
| 2026-04-26 12:35 | 37.36692 | 29.70236 | 37001 ft | 453 kts | 145° |
| 2026-04-26 12:36 | 37.31471 | 29.74738 | 36998 ft | 454 kts | 145° |
| 2026-04-26 12:36 | 37.26288 | 29.79216 | 37004 ft | 454 kts | 145° |
| 2026-04-26 12:37 | 37.21060 | 29.83727 | 37000 ft | 454 kts | 145° |
| 2026-04-26 12:37 | 37.15885 | 29.88185 | 36999 ft | 454 kts | 145° |
| 2026-04-26 12:38 | 37.10661 | 29.92675 | 36996 ft | 453 kts | 145° |
| 2026-04-26 12:38 | 37.05459 | 29.97117 | 37000 ft | 453 kts | 146° |
| 2026-04-26 12:39 | 37.00259 | 30.01544 | 37003 ft | 452 kts | 146° |
| 2026-04-26 12:39 | 36.95896 | 30.05258 | 36984 ft | 452 kts | 146° |
| 2026-04-26 12:40 | 36.90706 | 30.09670 | 36985 ft | 451 kts | 146° |
| 2026-04-26 12:40 | 36.85545 | 30.14050 | 36989 ft | 450 kts | 146° |
| 2026-04-26 12:41 | 36.80361 | 30.18446 | 36976 ft | 450 kts | 146° |
| 2026-04-26 12:41 | 36.75185 | 30.22834 | 36970 ft | 450 kts | 146° |
| 2026-04-26 12:42 | 36.69998 | 30.27226 | 36983 ft | 449 kts | 146° |
| 2026-04-26 12:42 | 36.64836 | 30.31590 | 36957 ft | 449 kts | 147° |
| 2026-04-26 12:43 | 36.59668 | 30.35951 | 36960 ft | 449 kts | 147° |
| 2026-04-26 12:43 | 36.54650 | 30.40178 | 36949 ft | 449 kts | 147° |
| 2026-04-26 12:44 | 36.49502 | 30.44507 | 36950 ft | 449 kts | 147° |
| 2026-04-26 12:44 | 36.44297 | 30.48879 | 36945 ft | 449 kts | 147° |
| 2026-04-26 12:45 | 36.39121 | 30.53218 | 36930 ft | 450 kts | 147° |
| 2026-04-26 12:45 | 36.33932 | 30.57561 | 36939 ft | 450 kts | 147° |
| 2026-04-26 12:46 | 36.28760 | 30.61884 | 36927 ft | 450 kts | 147° |
| 2026-04-26 12:46 | 36.23553 | 30.66228 | 36926 ft | 450 kts | 147° |
| 2026-04-26 12:47 | 36.18358 | 30.70555 | 36930 ft | 451 kts | 147° |
| 2026-04-26 12:47 | 36.13157 | 30.74881 | 36930 ft | 451 kts | 147° |
| 2026-04-26 12:48 | 36.07952 | 30.79225 | 36929 ft | 452 kts | 146° |
| 2026-04-26 12:48 | 36.02859 | 30.83829 | 36926 ft | 453 kts | 144° |
| 2026-04-26 12:49 | 35.97817 | 30.88514 | 36927 ft | 453 kts | 144° |
| 2026-04-26 12:49 | 35.92772 | 30.93161 | 36926 ft | 455 kts | 145° |
| 2026-04-26 12:50 | 35.87644 | 30.97837 | 36927 ft | 461 kts | 145° |
| 2026-04-26 12:50 | 35.82440 | 31.02560 | 36931 ft | 466 kts | 146° |
| 2026-04-26 12:51 | 35.77186 | 31.07319 | 36925 ft | 471 kts | 146° |
| 2026-04-26 12:51 | 35.71897 | 31.12104 | 36919 ft | 474 kts | 146° |
| 2026-04-26 12:52 | 35.66564 | 31.16921 | 36916 ft | 477 kts | 146° |
| 2026-04-26 12:52 | 35.61196 | 31.21762 | 36914 ft | 478 kts | 146° |
| 2026-04-26 12:53 | 35.55819 | 31.26603 | 36914 ft | 480 kts | 146° |
| 2026-04-26 12:53 | 35.50443 | 31.31433 | 36914 ft | 480 kts | 146° |
| 2026-04-26 12:54 | 35.45063 | 31.36260 | 36908 ft | 480 kts | 146° |
| 2026-04-26 12:54 | 35.39671 | 31.41090 | 36907 ft | 479 kts | 146° |
| 2026-04-26 12:55 | 35.34289 | 31.45902 | 36910 ft | 478 kts | 147° |
| 2026-04-26 12:55 | 35.28945 | 31.50671 | 36911 ft | 478 kts | 147° |
| 2026-04-26 12:56 | 35.23561 | 31.55469 | 36910 ft | 478 kts | 147° |
| 2026-04-26 12:56 | 35.18172 | 31.60263 | 36908 ft | 478 kts | 147° |
| 2026-04-26 12:57 | 35.12801 | 31.65032 | 36909 ft | 478 kts | 147° |
| 2026-04-26 12:57 | 35.07398 | 31.69823 | 36910 ft | 478 kts | 147° |
| 2026-04-26 12:58 | 34.99333 | 31.76958 | 36904 ft | 479 kts | 147° |
| 2026-04-26 12:58 | 34.93920 | 31.81738 | 36906 ft | 479 kts | 147° |
| 2026-04-26 12:59 | 34.88548 | 31.86472 | 36904 ft | 479 kts | 147° |
| 2026-04-26 12:59 | 34.83141 | 31.91231 | 36906 ft | 480 kts | 147° |
| 2026-04-26 13:00 | 34.77737 | 31.95979 | 36906 ft | 480 kts | 147° |
| 2026-04-26 13:00 | 34.72310 | 32.00739 | 36911 ft | 481 kts | 148° |
| 2026-04-26 13:01 | 34.66863 | 32.05508 | 36907 ft | 481 kts | 148° |
| 2026-04-26 13:01 | 34.61463 | 32.10229 | 36907 ft | 481 kts | 148° |
| 2026-04-26 13:02 | 34.56004 | 32.14993 | 36909 ft | 482 kts | 148° |
| 2026-04-26 13:02 | 34.50551 | 32.19744 | 36909 ft | 482 kts | 148° |
| 2026-04-26 13:03 | 34.45132 | 32.24458 | 36905 ft | 482 kts | 148° |
| 2026-04-26 13:03 | 34.39669 | 32.29203 | 36913 ft | 483 kts | 148° |
| 2026-04-26 13:04 | 34.34211 | 32.33935 | 36913 ft | 483 kts | 148° |
| 2026-04-26 13:04 | 34.28748 | 32.38664 | 36911 ft | 483 kts | 149° |
| 2026-04-26 13:05 | 34.23283 | 32.43387 | 36912 ft | 483 kts | 149° |
| 2026-04-26 13:05 | 34.17812 | 32.48108 | 36908 ft | 483 kts | 149° |
| 2026-04-26 13:06 | 34.12342 | 32.52819 | 36911 ft | 483 kts | 149° |
| 2026-04-26 13:06 | 34.06853 | 32.57540 | 36914 ft | 484 kts | 149° |
| 2026-04-26 13:07 | 34.01388 | 32.62232 | 36916 ft | 484 kts | 149° |
| 2026-04-26 13:07 | 33.95877 | 32.66956 | 36914 ft | 484 kts | 150° |
| 2026-04-26 13:08 | 33.90387 | 32.71655 | 36917 ft | 484 kts | 150° |
| 2026-04-26 13:08 | 33.84890 | 32.76352 | 36917 ft | 485 kts | 150° |
| 2026-04-26 13:09 | 33.79432 | 32.81012 | 36868 ft | 475 kts | 150° |
| 2026-04-26 13:09 | 33.76762 | 32.83295 | 36624 ft | 464 kts | 150° |
| 2026-04-26 13:09 | 33.74145 | 32.85529 | 36358 ft | 454 kts | 150° |
| 2026-04-26 13:10 | 33.71624 | 32.87677 | 36105 ft | 447 kts | 150° |
| 2026-04-26 13:10 | 33.69072 | 32.89843 | 35881 ft | 450 kts | 150° |
| 2026-04-26 13:10 | 33.66511 | 32.92009 | 35652 ft | 456 kts | 150° |
| 2026-04-26 13:10 | 33.63881 | 32.94232 | 35423 ft | 462 kts | 150° |
| 2026-04-26 13:11 | 33.61234 | 32.96472 | 35186 ft | 462 kts | 150° |
| 2026-04-26 13:11 | 33.58640 | 32.98672 | 34943 ft | 461 kts | 150° |
| 2026-04-26 13:11 | 33.56011 | 33.00902 | 34582 ft | 459 kts | 150° |
| 2026-04-26 13:11 | 33.53420 | 33.03097 | 33971 ft | 460 kts | 150° |
| 2026-04-26 13:12 | 33.50798 | 33.05315 | 33294 ft | 460 kts | 150° |
| 2026-04-26 13:12 | 33.49279 | 33.06600 | 33017 ft | 458 kts | 150° |
| 2026-04-26 13:12 | 33.46681 | 33.08797 | 32544 ft | 453 kts | 150° |
| 2026-04-26 13:12 | 33.44115 | 33.10965 | 32075 ft | 449 kts | 150° |
| 2026-04-26 13:13 | 33.43583 | 33.11414 | 31982 ft | 448 kts | 150° |
| 2026-04-26 13:13 | 33.41736 | 33.12973 | 31654 ft | 445 kts | 150° |
| 2026-04-26 13:13 | 33.39204 | 33.15108 | 31206 ft | 441 kts | 150° |
| 2026-04-26 13:14 | 33.36706 | 33.17212 | 30766 ft | 438 kts | 150° |
| 2026-04-26 13:14 | 33.34246 | 33.19281 | 30334 ft | 434 kts | 149° |
| 2026-04-26 13:14 | 33.31771 | 33.21363 | 29880 ft | 431 kts | 149° |
| 2026-04-26 13:14 | 33.29376 | 33.23375 | 29382 ft | 428 kts | 149° |
| 2026-04-26 13:15 | 33.26951 | 33.25412 | 28903 ft | 423 kts | 149° |
| 2026-04-26 13:15 | 33.24577 | 33.27405 | 28445 ft | 419 kts | 149° |
| 2026-04-26 13:15 | 33.22194 | 33.29404 | 28004 ft | 415 kts | 149° |
| 2026-04-26 13:15 | 33.20633 | 33.30713 | 27698 ft | 413 kts | 149° |
| 2026-04-26 13:16 | 33.17507 | 33.33332 | 27105 ft | 408 kts | 149° |
| 2026-04-26 13:16 | 33.15213 | 33.35254 | 26666 ft | 405 kts | 149° |
| 2026-04-26 13:16 | 33.13066 | 33.37453 | 26362 ft | 405 kts | 137° |
| 2026-04-26 13:16 | 33.11258 | 33.40043 | 26121 ft | 404 kts | 133° |
| 2026-04-26 13:17 | 33.07739 | 33.45404 | 25569 ft | 412 kts | 132° |
| 2026-04-26 13:17 | 33.05990 | 33.48075 | 25177 ft | 411 kts | 132° |
| 2026-04-26 13:18 | 33.02284 | 33.53661 | 24450 ft | 451 kts | 132° |
| 2026-04-26 13:18 | 33.00269 | 33.56675 | 23987 ft | 471 kts | 132° |
| 2026-04-26 13:18 | 32.96101 | 33.62908 | 22985 ft | 483 kts | 131° |
| 2026-04-26 13:19 | 32.94012 | 33.66035 | 22439 ft | 478 kts | 132° |
| 2026-04-26 13:19 | 32.91964 | 33.69099 | 21905 ft | 473 kts | 132° |
| 2026-04-26 13:19 | 32.89940 | 33.72121 | 21386 ft | 468 kts | 132° |
| 2026-04-26 13:19 | 32.87904 | 33.75154 | 20865 ft | 464 kts | 132° |
| 2026-04-26 13:20 | 32.85914 | 33.78114 | 20372 ft | 459 kts | 132° |
| 2026-04-26 13:20 | 32.84588 | 33.80084 | 20010 ft | 457 kts | 133° |
| 2026-04-26 13:20 | 32.82598 | 33.83039 | 19461 ft | 452 kts | 133° |
| 2026-04-26 13:20 | 32.80003 | 33.86888 | 18732 ft | 446 kts | 133° |
| 2026-04-26 13:21 | 32.78692 | 33.88831 | 18369 ft | 443 kts | 133° |
| 2026-04-26 13:21 | 32.76791 | 33.91648 | 17782 ft | 439 kts | 133° |
| 2026-04-26 13:21 | 32.74877 | 33.94480 | 17170 ft | 435 kts | 133° |
| 2026-04-26 13:21 | 32.73004 | 33.97251 | 16582 ft | 431 kts | 134° |
| 2026-04-26 13:22 | 32.71133 | 34.00016 | 16029 ft | 426 kts | 134° |
| 2026-04-26 13:22 | 32.69280 | 34.02753 | 15533 ft | 423 kts | 134° |
| 2026-04-26 13:22 | 32.67442 | 34.05464 | 15036 ft | 420 kts | 134° |
| 2026-04-26 13:22 | 32.65616 | 34.08156 | 14557 ft | 417 kts | 134° |
| 2026-04-26 13:23 | 32.63801 | 34.10831 | 14077 ft | 414 kts | 134° |
| 2026-04-26 13:23 | 32.62022 | 34.13452 | 13585 ft | 410 kts | 134° |
| 2026-04-26 13:23 | 32.60230 | 34.16088 | 13075 ft | 407 kts | 134° |
| 2026-04-26 13:23 | 32.58448 | 34.18708 | 12546 ft | 405 kts | 134° |
| 2026-04-26 13:24 | 32.56678 | 34.21307 | 12043 ft | 402 kts | 134° |
| 2026-04-26 13:24 | 32.54938 | 34.23863 | 11544 ft | 399 kts | 134° |
| 2026-04-26 13:24 | 32.53198 | 34.26416 | 11052 ft | 396 kts | 134° |
| 2026-04-26 13:24 | 32.51466 | 34.28956 | 10568 ft | 394 kts | 134° |
| 2026-04-26 13:25 | 32.49769 | 34.31442 | 10098 ft | 392 kts | 134° |
| 2026-04-26 13:25 | 32.48053 | 34.33956 | 9611 ft | 389 kts | 134° |
| 2026-04-26 13:25 | 32.46361 | 34.36433 | 9098 ft | 386 kts | 134° |
| 2026-04-26 13:25 | 32.44724 | 34.38826 | 8692 ft | 383 kts | 134° |
| 2026-04-26 13:26 | 32.43068 | 34.41247 | 8325 ft | 382 kts | 133° |
| 2026-04-26 13:26 | 32.41393 | 34.43693 | 7953 ft | 381 kts | 133° |
| 2026-04-26 13:26 | 32.39724 | 34.46130 | 7590 ft | 380 kts | 133° |
| 2026-04-26 13:26 | 32.38053 | 34.48568 | 7223 ft | 378 kts | 133° |
| 2026-04-26 13:27 | 32.36413 | 34.50960 | 6969 ft | 375 kts | 133° |
| 2026-04-26 13:27 | 32.34914 | 34.53511 | 6849 ft | 382 kts | 121° |
| 2026-04-26 13:27 | 32.33862 | 34.56427 | 6742 ft | 384 kts | 116° |
| 2026-04-26 13:27 | 32.32875 | 34.59333 | 6618 ft | 384 kts | 116° |
| 2026-04-26 13:28 | 32.31858 | 34.62256 | 6388 ft | 383 kts | 116° |
| 2026-04-26 13:28 | 32.30832 | 34.65133 | 6147 ft | 381 kts | 117° |
| 2026-04-26 13:28 | 32.29793 | 34.68000 | 5899 ft | 379 kts | 117° |
| 2026-04-26 13:28 | 32.28748 | 34.70871 | 5655 ft | 377 kts | 116° |
| 2026-04-26 13:29 | 32.27734 | 34.73654 | 5573 ft | 363 kts | 116° |
| 2026-04-26 13:29 | 32.27079 | 34.75452 | 5512 ft | 352 kts | 116° |
| 2026-04-26 13:29 | 32.25829 | 34.78882 | 5398 ft | 330 kts | 116° |
| 2026-04-26 13:29 | 32.24996 | 34.81364 | 5302 ft | 318 kts | 111° |
| 2026-04-26 13:30 | 32.24362 | 34.83823 | 5224 ft | 306 kts | 109° |
| 2026-04-26 13:30 | 32.23782 | 34.86197 | 5142 ft | 292 kts | 109° |
| 2026-04-26 13:30 | 32.23225 | 34.88422 | 4971 ft | 276 kts | 110° |
| 2026-04-26 13:30 | 32.22683 | 34.90542 | 4646 ft | 263 kts | 110° |
| 2026-04-26 13:31 | 32.22159 | 34.92569 | 4306 ft | 252 kts | 110° |
| 2026-04-26 13:31 | 32.21657 | 34.94495 | 3973 ft | 243 kts | 111° |
| 2026-04-26 13:31 | 32.21168 | 34.96368 | 3677 ft | 231 kts | 111° |
| 2026-04-26 13:31 | 32.20533 | 34.98009 | 3500 ft | 212 kts | 135° |
| 2026-04-26 13:32 | 32.19396 | 34.98941 | 3361 ft | 192 kts | 164° |
| 2026-04-26 13:32 | 32.18137 | 34.99226 | 3212 ft | 177 kts | 185° |
| 2026-04-26 13:32 | 32.16908 | 34.99150 | 3100 ft | 177 kts | 188° |
| 2026-04-26 13:32 | 32.15713 | 34.98917 | 2948 ft | 175 kts | 205° |
| 2026-04-26 13:33 | 32.14646 | 34.98292 | 2849 ft | 166 kts | 209° |
| 2026-04-26 13:33 | 32.13637 | 34.97677 | 2753 ft | 167 kts | 211° |
| 2026-04-26 13:33 | 32.12599 | 34.97016 | 2529 ft | 170 kts | 211° |
| 2026-04-26 13:33 | 32.11570 | 34.96351 | 2306 ft | 169 kts | 211° |
| 2026-04-26 13:34 | 32.10555 | 34.95695 | 2079 ft | 161 kts | 212° |
| 2026-04-26 13:34 | 32.09600 | 34.95076 | 1901 ft | 148 kts | 212° |
| 2026-04-26 13:34 | 32.08709 | 34.94498 | 1689 ft | 146 kts | 212° |
| 2026-04-26 13:34 | 32.08120 | 34.94115 | 1555 ft | 144 kts | 212° |
| 2026-04-26 13:35 | 32.06962 | 34.93363 | 1302 ft | 142 kts | 213° |
| 2026-04-26 13:35 | 32.06095 | 34.92801 | 1113 ft | 143 kts | 212° |
| 2026-04-26 13:35 | 32.05268 | 34.92265 | 928 ft | 140 kts | 212° |
| 2026-04-26 13:35 | 32.04425 | 34.91719 | 751 ft | 139 kts | 212° |
| 2026-04-26 13:36 | 32.03608 | 34.91189 | 568 ft | 132 kts | 213° |
| 2026-04-26 13:36 | 32.02798 | 34.90661 | 370 ft | 134 kts | 213° |
| 2026-04-26 13:36 | 32.01958 | 34.90119 | 201 ft | 142 kts | 213° |
| 2026-04-26 13:36 | 32.01117 | 34.89573 | 122 ft | 126 kts | 209° |
| 2026-04-26 13:37 | 32.00536 | 34.89198 | 118 ft | 65 kts | 209° |
| 2026-04-26 13:37 | 32.00268 | 34.89016 | 117 ft | 37 kts | 218° |
| 2026-04-26 13:37 | 32.00131 | 34.88816 | 118 ft | 25 kts | 238° |
| 2026-04-26 13:37 | 32.00083 | 34.88683 | 119 ft | 14 kts | 277° |
| 2026-04-26 13:38 | 32.00127 | 34.88580 | 119 ft | 15 kts | 301° |
| 2026-04-26 13:38 | 32.00196 | 34.88450 | 117 ft | 22 kts | 302° |
| 2026-04-26 13:38 | 32.00277 | 34.88294 | 118 ft | 22 kts | 301° |
| 2026-04-26 13:38 | 32.00356 | 34.88142 | 118 ft | 21 kts | 301° |
| 2026-04-26 13:39 | 32.00429 | 34.88001 | 117 ft | 19 kts | 301° |
| 2026-04-26 13:39 | 32.00486 | 34.87873 | 119 ft | 13 kts | 270° |
| 2026-04-26 13:39 | 32.00425 | 34.87802 | 118 ft | 13 kts | 211° |
| 2026-04-26 13:39 | 32.00350 | 34.87749 | 119 ft | 12 kts | 211° |
| 2026-04-26 13:40 | 32.00284 | 34.87695 | 117 ft | 8 kts | 240° |
| 2026-04-26 13:40 | 32.00307 | 34.87644 | 116 ft | 7 kts | 317° |
| 2026-04-26 13:40 | 32.00322 | 34.87626 | 114 ft | 0 kts | 316° |